Time;durP1;ratioP1;P1;durP2;ratioP2;P2;SDS_P1;SDS_P2;PMS_P1;PMS_P2;Temp;Humidity;BMP_temperature;BMP_pressure;BME280_temperature;BME280_humidity;BME280_pressure;Samples;Min_cycle;Max_cycle;Signal;HPM_P1;HPM_P2
2023/03/05 00:02:12;;;;;;;3.75;1.45;;;4.90;99.90;;;;;;5014976;28;20139;-78
2023/03/05 00:04:37;;;;;;;5.50;1.30;;;4.90;99.90;;;;;;5016983;28;20082;-78
2023/03/05 00:07:04;;;;;;;4.35;1.40;;;4.90;99.90;;;;;;5035317;28;20037;-79
2023/03/05 00:09:30;;;;;;;4.70;1.55;;;4.90;99.90;;;;;;5016724;28;20141;-79
2023/03/05 00:11:55;;;;;;;5.03;1.40;;;4.90;99.90;;;;;;5034150;28;20052;-79
2023/03/05 00:14:21;;;;;;;7.05;2.15;;;4.90;99.90;;;;;;5034631;28;20033;-79
2023/03/05 00:16:47;;;;;;;7.40;1.60;;;4.90;99.90;;;;;;5033635;28;20029;-79
2023/03/05 00:19:13;;;;;;;8.45;1.45;;;4.90;99.90;;;;;;5016062;28;20044;-81
2023/03/05 00:21:40;;;;;;;9.32;2.17;;;4.90;99.90;;;;;;5035137;28;20033;-78
2023/03/05 00:24:10;;;;;;;10.10;1.80;;;4.90;99.90;;;;;;5037463;28;20033;-77
2023/03/05 00:26:37;;;;;;;5.60;1.63;;;4.90;99.90;;;;;;5018983;28;20033;-78
2023/03/05 00:29:04;;;;;;;4.28;1.50;;;4.90;99.90;;;;;;5035909;28;20460;-79
2023/03/05 00:31:31;;;;;;;5.85;1.50;;;4.90;99.90;;;;;;5025638;28;20049;-77
2023/03/05 00:34:00;;;;;;;5.53;1.55;;;4.90;99.90;;;;;;5017685;28;20551;-78
2023/03/05 00:36:29;;;;;;;5.70;1.45;;;4.90;99.90;;;;;;5036759;28;20620;-79
2023/03/05 00:38:55;;;;;;;7.07;1.60;;;4.90;99.90;;;;;;5037969;28;20041;-79
2023/03/05 00:41:20;;;;;;;3.33;1.25;;;4.90;99.90;;;;;;5025198;28;20051;-77
2023/03/05 00:43:47;;;;;;;4.90;1.33;;;4.90;99.90;;;;;;5036271;28;20037;-78
2023/03/05 00:46:12;;;;;;;5.65;1.90;;;4.90;99.90;;;;;;5019098;28;20040;-78
2023/03/05 00:48:38;;;;;;;3.60;1.20;;;4.90;99.90;;;;;;5024874;28;20049;-78
2023/03/05 00:51:03;;;;;;;5.35;1.45;;;4.90;99.90;;;;;;5024116;28;20073;-77
2023/03/05 00:53:32;;;;;;;9.00;2.00;;;4.90;99.90;;;;;;5036659;28;20482;-78
2023/03/05 00:55:58;;;;;;;5.55;1.42;;;4.90;99.90;;;;;;5018808;28;20139;-79
2023/03/05 00:58:24;;;;;;;10.73;2.00;;;4.90;99.90;;;;;;5036845;28;20139;-78
2023/03/05 01:00:49;;;;;;;5.32;1.30;;;4.90;99.90;;;;;;5018852;28;20471;-78
2023/03/05 01:03:16;;;;;;;9.43;2.13;;;4.90;99.90;;;;;;5017396;28;20030;-78
2023/03/05 01:05:43;;;;;;;5.97;1.70;;;4.90;99.90;;;;;;5037580;28;20172;-78
2023/03/05 01:08:11;;;;;;;5.22;2.00;;;4.90;99.90;;;;;;5024452;28;20037;-78
2023/03/05 01:10:37;;;;;;;6.50;1.85;;;4.90;99.90;;;;;;5038688;28;21835;-78
2023/03/05 01:13:02;;;;;;;7.25;1.70;;;4.80;99.90;;;;;;5036100;28;20534;-79
2023/03/05 01:15:28;;;;;;;5.60;1.50;;;4.80;99.90;;;;;;5024356;28;20583;-77
2023/03/05 01:17:53;;;;;;;3.65;1.15;;;4.90;99.90;;;;;;5035881;28;20037;-78
2023/03/05 01:20:22;;;;;;;5.93;1.60;;;4.80;99.90;;;;;;5018638;28;20033;-77
2023/03/05 01:22:48;;;;;;;4.90;1.40;;;4.80;99.90;;;;;;5037803;28;20083;-77
2023/03/05 01:25:14;;;;;;;4.75;1.38;;;4.80;99.90;;;;;;5018091;28;20040;-77
2023/03/05 01:27:40;;;;;;;4.32;1.48;;;4.80;99.90;;;;;;5017781;28;20067;-77
2023/03/05 01:30:07;;;;;;;3.75;1.23;;;4.80;99.90;;;;;;5019997;28;20037;-77
2023/03/05 01:32:33;;;;;;;6.25;1.65;;;4.80;99.90;;;;;;5034718;28;20043;-77
2023/03/05 01:35:00;;;;;;;4.80;1.30;;;4.80;99.90;;;;;;5036176;28;20052;-77
2023/03/05 01:37:26;;;;;;;7.63;1.73;;;4.80;99.90;;;;;;5036744;28;20049;-78
2023/03/05 01:39:52;;;;;;;5.15;1.45;;;4.80;99.90;;;;;;5018484;28;20026;-78
2023/03/05 01:42:19;;;;;;;7.80;1.75;;;4.80;99.90;;;;;;5036955;28;20107;-78
2023/03/05 01:45:04;;;;;;;5.50;1.27;;;4.80;99.90;;;;;;5024485;28;20033;-79
2023/03/05 01:47:30;;;;;;;6.63;1.38;;;4.70;99.90;;;;;;5036889;28;20038;-79
2023/03/05 01:49:55;;;;;;;7.00;1.80;;;4.70;99.90;;;;;;5037425;28;20044;-77
2023/03/05 01:52:23;;;;;;;6.70;1.60;;;4.70;99.90;;;;;;5036613;28;20051;-78
2023/03/05 01:54:53;;;;;;;6.60;1.67;;;4.70;99.90;;;;;;5035964;28;20632;-77
2023/03/05 01:57:21;;;;;;;4.82;1.25;;;4.70;99.90;;;;;;5015527;28;20056;-78
2023/03/05 01:59:51;;;;;;;4.00;1.00;;;4.70;99.90;;;;;;4998528;28;20172;-78
2023/03/05 02:02:17;;;;;;;5.22;1.25;;;4.70;99.90;;;;;;5016767;28;20445;-78
2023/03/05 02:04:48;;;;;;;4.88;1.40;;;4.70;99.90;;;;;;4997876;28;20642;-78
2023/03/05 02:07:15;;;;;;;3.72;0.80;;;4.70;99.90;;;;;;4998813;28;20029;-78
2023/03/05 02:09:41;;;;;;;4.72;1.25;;;4.60;99.90;;;;;;5017292;28;20505;-79
2023/03/05 02:12:09;;;;;;;2.88;0.70;;;4.70;99.90;;;;;;5015863;28;20129;-78
2023/03/05 02:14:38;;;;;;;4.90;1.10;;;4.70;99.90;;;;;;5000265;28;20041;-79
2023/03/05 02:17:04;;;;;;;5.50;1.13;;;4.70;99.90;;;;;;5015974;28;20084;-77
2023/03/05 02:19:52;;;;;;;6.30;1.27;;;4.70;99.90;;;;;;5016027;28;20041;-78
2023/03/05 02:22:20;;;;;;;4.45;0.85;;;4.70;99.90;;;;;;4999196;28;20025;-78
2023/03/05 02:24:45;;;;;;;4.13;1.30;;;4.70;99.90;;;;;;4997734;28;20041;-77
2023/03/05 02:27:12;;;;;;;2.95;0.98;;;4.70;99.90;;;;;;5015766;28;20034;-77
2023/03/05 02:29:41;;;;;;;4.20;1.15;;;4.70;99.90;;;;;;4999215;28;20033;-77
2023/03/05 02:32:08;;;;;;;5.20;1.17;;;4.70;99.90;;;;;;5016655;28;20446;-77
2023/03/05 02:34:34;;;;;;;5.68;1.10;;;4.70;99.90;;;;;;4997754;28;20037;-78
2023/03/05 02:37:01;;;;;;;6.82;1.20;;;4.60;99.90;;;;;;4997683;28;20037;-78
2023/03/05 02:39:27;;;;;;;6.25;1.50;;;4.60;99.90;;;;;;5003908;28;20482;-79
2023/03/05 02:41:52;;;;;;;5.38;1.20;;;4.60;99.90;;;;;;5015282;28;20129;-78
2023/03/05 02:44:18;;;;;;;9.30;1.60;;;4.50;99.90;;;;;;5016297;28;20302;-78
2023/03/05 02:46:43;;;;;;;5.45;1.20;;;4.50;99.90;;;;;;4997446;28;20033;-79
2023/03/05 02:49:09;;;;;;;7.43;2.15;;;4.50;99.90;;;;;;5003251;28;20050;-79
2023/03/05 02:51:35;;;;;;;8.60;2.08;;;4.50;99.90;;;;;;5004212;28;20033;-78
2023/03/05 02:54:00;;;;;;;6.57;1.80;;;4.50;99.90;;;;;;4997546;28;20507;-77
2023/03/05 02:56:26;;;;;;;5.22;1.65;;;4.50;99.90;;;;;;4997947;28;20029;-78
2023/03/05 02:58:51;;;;;;;6.90;2.10;;;4.40;99.90;;;;;;5018884;28;20098;-77
2023/03/05 03:01:18;;;;;;;7.43;2.05;;;4.40;99.90;;;;;;5023478;28;20027;-78
2023/03/05 03:03:44;;;;;;;6.20;2.60;;;4.40;99.90;;;;;;5017508;28;20134;-77
2023/03/05 03:06:10;;;;;;;6.70;2.05;;;4.40;99.90;;;;;;5033645;28;20111;-79
2023/03/05 03:08:35;;;;;;;5.22;2.03;;;4.40;99.90;;;;;;5023216;28;20048;-78
2023/03/05 03:11:14;;;;;;;4.60;2.10;;;4.40;99.90;;;;;;5035401;28;20163;-78
2023/03/05 03:13:40;;;;;;;9.30;2.38;;;4.40;99.90;;;;;;5016137;28;20041;-78
2023/03/05 03:16:14;;;;;;;6.93;2.10;;;4.40;99.90;;;;;;5016617;28;20605;-77
2023/03/05 03:18:39;;;;;;;4.78;1.98;;;4.40;99.90;;;;;;5034836;28;20090;-78
2023/03/05 03:21:06;;;;;;;6.53;2.08;;;4.40;99.90;;;;;;5022064;28;20026;-79
2023/03/05 03:23:33;;;;;;;6.07;2.03;;;4.40;99.90;;;;;;5018296;28;20033;-79
2023/03/05 03:25:58;;;;;;;9.38;2.95;;;4.30;99.90;;;;;;5021957;28;20037;-78
2023/03/05 03:28:24;;;;;;;5.97;2.22;;;4.30;99.90;;;;;;5016790;28;20041;-77
2023/03/05 03:30:50;;;;;;;6.35;2.47;;;4.30;99.90;;;;;;5017470;28;20167;-78
2023/03/05 03:33:17;;;;;;;8.88;2.83;;;4.30;99.90;;;;;;5036369;28;20625;-78
2023/03/05 03:35:45;;;;;;;8.07;2.30;;;4.30;99.90;;;;;;5017002;28;20092;-78
2023/03/05 03:38:12;;;;;;;5.32;2.00;;;4.30;99.90;;;;;;5016453;28;20029;-78
2023/03/05 03:40:38;;;;;;;4.93;1.88;;;4.30;99.90;;;;;;5023028;28;20060;-77
2023/03/05 03:43:04;;;;;;;5.40;1.88;;;4.30;99.90;;;;;;5015369;28;20136;-78
2023/03/05 03:45:29;;;;;;;4.38;1.83;;;4.30;99.90;;;;;;5017475;28;20687;-78
2023/03/05 03:47:55;;;;;;;4.10;2.13;;;4.30;99.90;;;;;;5032663;28;20053;-78
2023/03/05 03:50:23;;;;;;;7.70;2.35;;;4.30;99.90;;;;;;5022728;28;20037;-79
2023/03/05 03:52:49;;;;;;;8.60;2.58;;;4.30;99.90;;;;;;5018434;28;20072;-78
2023/03/05 03:55:15;;;;;;;9.75;2.78;;;4.30;99.90;;;;;;5034637;28;20095;-76
2023/03/05 03:57:42;;;;;;;7.28;2.58;;;4.30;99.90;;;;;;5025729;28;20445;-78
2023/03/05 04:00:10;;;;;;;6.60;2.50;;;4.30;99.90;;;;;;5020884;28;20029;-79
2023/03/05 04:02:36;;;;;;;5.80;2.65;;;4.30;99.90;;;;;;5026271;28;20076;-78
2023/03/05 04:05:02;;;;;;;6.88;2.28;;;4.20;99.90;;;;;;5038450;28;20547;-78
2023/03/05 04:07:28;;;;;;;6.82;2.33;;;4.20;99.90;;;;;;5037046;28;20037;-78
2023/03/05 04:09:53;;;;;;;9.25;2.60;;;4.20;99.90;;;;;;5038689;28;20073;-78
2023/03/05 04:12:19;;;;;;;6.03;2.33;;;4.20;99.90;;;;;;5026609;28;20459;-79
2023/03/05 04:14:46;;;;;;;7.20;2.50;;;4.20;99.90;;;;;;5025741;28;20037;-78
2023/03/05 04:17:13;;;;;;;6.80;1.80;;;4.20;99.90;;;;;;5019392;28;20040;-79
2023/03/05 04:19:39;;;;;;;9.07;1.90;;;4.20;99.90;;;;;;5030168;28;20041;-78
2023/03/05 04:22:09;;;;;;;6.90;2.08;;;4.20;99.90;;;;;;5036882;28;20029;-78
2023/03/05 04:24:35;;;;;;;4.38;1.85;;;4.20;99.90;;;;;;5025306;28;20487;-77
2023/03/05 04:27:00;;;;;;;5.03;1.30;;;4.20;99.90;;;;;;5021374;28;20041;-79
2023/03/05 04:29:26;;;;;;;4.63;1.60;;;4.20;99.90;;;;;;5019919;28;20045;-78
2023/03/05 04:31:51;;;;;;;7.72;1.65;;;4.20;99.90;;;;;;5038601;28;20434;-77
2023/03/05 04:34:17;;;;;;;5.45;1.58;;;4.30;99.90;;;;;;5039453;28;20048;-77
2023/03/05 04:36:43;;;;;;;4.53;1.50;;;4.20;99.90;;;;;;5020131;28;20036;-79
2023/03/05 04:39:08;;;;;;;7.57;1.90;;;4.30;99.90;;;;;;5019253;28;20029;-77
2023/03/05 04:41:34;;;;;;;5.45;1.80;;;4.30;99.90;;;;;;5037796;28;20067;-77
2023/03/05 04:44:00;;;;;;;3.85;1.13;;;4.30;99.90;;;;;;5037241;28;20044;-78
2023/03/05 04:46:28;;;;;;;6.90;1.40;;;4.20;99.90;;;;;;5025828;28;20033;-78
2023/03/05 04:48:53;;;;;;;5.50;1.75;;;4.20;99.90;;;;;;5036466;28;20053;-79
2023/03/05 04:51:19;;;;;;;4.50;1.42;;;4.20;99.90;;;;;;5038557;28;20090;-80
2023/03/05 04:53:44;;;;;;;4.72;2.17;;;4.20;99.90;;;;;;5019206;28;20140;-79
2023/03/05 04:56:10;;;;;;;5.85;1.80;;;4.20;99.90;;;;;;5037513;28;20063;-77
2023/03/05 04:58:36;;;;;;;7.55;1.80;;;4.20;99.90;;;;;;5036987;28;20083;-78
2023/03/05 05:01:03;;;;;;;6.25;1.80;;;4.20;99.90;;;;;;5037179;28;20940;-78
2023/03/05 05:03:29;;;;;;;3.10;1.30;;;4.20;99.90;;;;;;5024820;28;20428;-79
2023/03/05 05:05:55;;;;;;;3.97;1.55;;;4.20;99.90;;;;;;5036605;28;20152;-78
2023/03/05 05:08:22;;;;;;;5.55;1.70;;;4.20;99.90;;;;;;5018070;28;20429;-78
2023/03/05 05:11:14;;;;;;;3.63;1.30;;;4.20;99.90;;;;;;5025081;28;20582;-78
2023/03/05 05:13:39;;;;;;;5.68;1.50;;;4.20;99.90;;;;;;5008319;28;20067;-79
2023/03/05 05:16:07;;;;;;;5.57;1.70;;;4.10;99.90;;;;;;5024222;28;20045;-78
2023/03/05 05:18:32;;;;;;;4.88;1.48;;;4.10;99.90;;;;;;5018629;28;20040;-78
2023/03/05 05:20:58;;;;;;;8.27;1.88;;;4.00;99.90;;;;;;5024331;28;20036;-79
2023/03/05 05:23:23;;;;;;;4.22;1.33;;;3.90;99.90;;;;;;5018444;28;20521;-80
2023/03/05 05:26:00;;;;;;;6.28;1.92;;;3.90;99.90;;;;;;5037823;28;20046;-79
2023/03/05 05:28:26;;;;;;;6.07;2.00;;;3.90;99.90;;;;;;5019718;28;20049;-79
2023/03/05 05:30:52;;;;;;;5.22;1.48;;;3.90;99.90;;;;;;5017393;28;20229;-79
2023/03/05 05:33:17;;;;;;;4.45;1.58;;;3.90;99.90;;;;;;5018671;28;20045;-78
2023/03/05 05:35:43;;;;;;;5.25;1.13;;;3.90;99.90;;;;;;5051195;28;20029;-79
2023/03/05 05:38:09;;;;;;;3.97;1.40;;;3.90;99.90;;;;;;5035964;28;20639;-79
2023/03/05 05:40:34;;;;;;;5.60;1.40;;;4.00;99.90;;;;;;5018138;28;20056;-79
2023/03/05 05:43:00;;;;;;;5.00;1.52;;;4.00;99.90;;;;;;5023630;28;20041;-78
2023/03/05 05:45:25;;;;;;;5.20;1.50;;;4.00;99.90;;;;;;5024560;28;20060;-78
2023/03/05 05:47:51;;;;;;;6.05;1.40;;;4.00;99.90;;;;;;5018539;28;20041;-79
2023/03/05 05:50:19;;;;;;;3.90;1.33;;;4.00;99.90;;;;;;5022701;28;20033;-78
2023/03/05 05:52:45;;;;;;;4.85;1.65;;;4.00;99.90;;;;;;5022497;28;20125;-77
2023/03/05 05:55:14;;;;;;;3.85;1.17;;;4.00;99.90;;;;;;5018809;28;20025;-79
2023/03/05 05:57:40;;;;;;;3.20;0.90;;;4.00;99.90;;;;;;5017810;28;20042;-78
2023/03/05 06:00:08;;;;;;;2.92;1.05;;;4.00;99.90;;;;;;5015715;28;20049;-77
2023/03/05 06:02:41;;;;;;;4.15;0.88;;;4.00;99.90;;;;;;5015657;28;20025;-78
2023/03/05 06:05:09;;;;;;;3.13;1.10;;;4.00;99.90;;;;;;4998169;28;20487;-78
2023/03/05 06:07:35;;;;;;;3.90;0.93;;;4.00;99.90;;;;;;5016347;28;20534;-80
2023/03/05 06:10:02;;;;;;;3.55;1.00;;;4.00;99.90;;;;;;5015175;28;20132;-78
2023/03/05 06:12:27;;;;;;;2.45;0.80;;;4.00;99.90;;;;;;5016300;28;20033;-77
2023/03/05 06:14:53;;;;;;;2.17;0.88;;;4.00;99.90;;;;;;5016181;28;22227;-79
2023/03/05 06:17:18;;;;;;;2.03;1.08;;;4.00;99.90;;;;;;5000470;28;20391;-78
2023/03/05 06:19:44;;;;;;;3.13;0.90;;;4.00;99.90;;;;;;5014628;28;20172;-78
2023/03/05 06:22:10;;;;;;;2.47;0.70;;;3.90;99.90;;;;;;5015139;28;20065;-77
2023/03/05 06:24:37;;;;;;;4.05;1.10;;;4.00;99.90;;;;;;4998227;28;20037;-78
2023/03/05 06:27:04;;;;;;;3.08;0.95;;;4.00;99.90;;;;;;5016316;28;20671;-79
2023/03/05 06:29:30;;;;;;;4.05;1.23;;;4.00;99.90;;;;;;5016424;28;20054;-78
2023/03/05 06:31:55;;;;;;;5.10;1.00;;;4.00;99.90;;;;;;5004348;28;20081;-78
2023/03/05 06:34:21;;;;;;;2.72;0.82;;;4.00;99.90;;;;;;4999116;28;20513;-77
2023/03/05 06:36:46;;;;;;;3.53;0.80;;;4.00;99.90;;;;;;5004391;28;20040;-79
2023/03/05 06:39:12;;;;;;;4.30;1.10;;;4.00;99.90;;;;;;5015829;28;20802;-78
2023/03/05 06:41:38;;;;;;;2.58;1.10;;;4.00;99.90;;;;;;5014294;28;20639;-78
2023/03/05 06:44:03;;;;;;;3.78;0.90;;;4.00;99.90;;;;;;5004424;28;20041;-79
2023/03/05 06:46:31;;;;;;;5.03;1.13;;;4.00;99.90;;;;;;4998386;28;20461;-79
2023/03/05 06:48:59;;;;;;;5.53;1.42;;;4.00;99.90;;;;;;5015861;28;20099;-78
2023/03/05 06:51:26;;;;;;;3.92;1.55;;;4.00;99.90;;;;;;4998046;28;20026;-77
2023/03/05 06:53:52;;;;;;;3.95;1.65;;;4.00;99.90;;;;;;5003268;28;20045;-77
2023/03/05 06:56:19;;;;;;;6.72;1.80;;;4.00;99.90;;;;;;4998532;28;20089;-79
2023/03/05 06:58:49;;;;;;;7.38;1.67;;;3.90;99.90;;;;;;5014000;28;20075;-78
2023/03/05 07:01:15;;;;;;;4.55;1.52;;;3.90;99.90;;;;;;5016343;28;20121;-78
2023/03/05 07:03:42;;;;;;;4.13;1.50;;;3.90;99.90;;;;;;5034120;28;20111;-78
2023/03/05 07:06:11;;;;;;;8.50;2.00;;;4.00;99.90;;;;;;5023353;28;20037;-78
2023/03/05 07:08:37;;;;;;;7.20;1.80;;;4.00;99.90;;;;;;5017446;28;20037;-78
2023/03/05 07:11:14;;;;;;;4.68;1.70;;;4.00;99.90;;;;;;5022829;28;20281;-79
2023/03/05 07:13:40;;;;;;;4.82;1.45;;;4.00;99.90;;;;;;5022659;28;20041;-78
2023/03/05 07:16:12;;;;;;;5.05;1.95;;;4.10;99.90;;;;;;5016541;28;20040;-77
2023/03/05 07:18:38;;;;;;;9.77;2.35;;;4.10;99.90;;;;;;5036062;28;20582;-78
2023/03/05 07:21:07;;;;;;;6.15;1.90;;;4.10;99.90;;;;;;5021821;28;20044;-78
2023/03/05 07:23:34;;;;;;;6.15;1.75;;;4.10;99.90;;;;;;5034887;28;20086;-79
2023/03/05 07:26:06;;;;;;;5.45;1.40;;;4.20;99.90;;;;;;5016711;28;20167;-78
2023/03/05 07:28:33;;;;;;;4.65;1.60;;;4.20;99.90;;;;;;5035667;28;20130;-79
2023/03/05 07:31:01;;;;;;;5.72;2.05;;;4.20;99.90;;;;;;5028481;28;20033;-79
2023/03/05 07:33:27;;;;;;;3.85;1.60;;;4.30;99.90;;;;;;5019874;28;20151;-80
2023/03/05 07:35:53;;;;;;;5.93;1.70;;;4.30;99.90;;;;;;5021144;28;20036;-78
2023/03/05 07:38:19;;;;;;;3.65;1.88;;;4.40;99.90;;;;;;5027591;28;20519;-77
2023/03/05 07:40:45;;;;;;;4.03;1.90;;;4.50;99.90;;;;;;5020923;28;20489;-80
2023/03/05 07:43:11;;;;;;;4.03;1.70;;;4.50;99.90;;;;;;5027321;28;20154;-79
2023/03/05 07:45:41;;;;;;;3.60;1.50;;;4.60;99.90;;;;;;5038635;28;20098;-79
2023/03/05 07:48:11;;;;;;;3.10;1.55;;;4.70;99.90;;;;;;5038365;28;20719;-80
2023/03/05 07:50:36;;;;;;;5.18;1.70;;;4.80;99.90;;;;;;5022341;28;20497;-78
2023/03/05 07:53:02;;;;;;;4.00;1.73;;;4.90;99.90;;;;;;5020431;28;20029;-78
2023/03/05 07:55:28;;;;;;;5.07;1.50;;;5.00;99.90;;;;;;5026956;28;20037;-77
2023/03/05 07:57:53;;;;;;;2.13;1.27;;;5.10;99.90;;;;;;5038425;28;20498;-78
2023/03/05 08:00:19;;;;;;;4.68;1.48;;;5.10;99.90;;;;;;5026242;28;20037;-78
2023/03/05 08:02:45;;;;;;;5.95;1.80;;;5.20;99.90;;;;;;5037491;28;20144;-79
2023/03/05 08:05:13;;;;;;;3.40;1.50;;;5.20;99.90;;;;;;5025403;28;20179;-79
2023/03/05 08:07:39;;;;;;;2.88;1.70;;;5.20;99.90;;;;;;5020104;28;20030;-79
2023/03/05 08:10:05;;;;;;;3.38;1.58;;;5.20;99.90;;;;;;5019771;28;20052;-78
2023/03/05 08:12:31;;;;;;;7.68;1.98;;;5.20;99.90;;;;;;5038899;28;20052;-78
2023/03/05 08:14:56;;;;;;;5.50;2.13;;;5.20;99.90;;;;;;5037536;28;20044;-78
2023/03/05 08:17:22;;;;;;;5.85;2.17;;;5.20;99.90;;;;;;5039406;28;20120;-78
2023/03/05 08:19:47;;;;;;;5.28;2.20;;;5.30;99.90;;;;;;5039586;28;20116;-76
2023/03/05 08:22:15;;;;;;;4.15;1.98;;;5.40;99.90;;;;;;5036905;28;20483;-78
2023/03/05 08:24:41;;;;;;;8.13;2.40;;;5.40;99.90;;;;;;5037572;28;20041;-77
2023/03/05 08:27:07;;;;;;;6.57;2.20;;;5.50;99.90;;;;;;5019477;28;20030;-77
2023/03/05 08:29:32;;;;;;;5.45;2.22;;;5.50;99.90;;;;;;5038128;28;20055;-79
2023/03/05 08:31:58;;;;;;;7.20;2.03;;;5.50;99.90;;;;;;5019164;28;20079;-79
2023/03/05 08:34:23;;;;;;;4.90;2.03;;;5.60;99.90;;;;;;5037145;28;20045;-78
2023/03/05 08:36:49;;;;;;;5.43;2.05;;;5.70;99.90;;;;;;5040995;28;20035;-79
2023/03/05 08:39:15;;;;;;;4.35;1.70;;;5.70;99.90;;;;;;5020347;28;20561;-79
2023/03/05 08:41:41;;;;;;;5.20;1.92;;;5.70;99.90;;;;;;5019464;28;20128;-77
2023/03/05 08:44:06;;;;;;;4.38;1.73;;;5.60;99.90;;;;;;5018841;28;20037;-78
2023/03/05 08:46:32;;;;;;;5.25;1.52;;;5.60;99.90;;;;;;5019177;28;20029;-79
2023/03/05 08:48:58;;;;;;;4.07;1.40;;;5.60;99.90;;;;;;5025069;28;20383;-76
2023/03/05 08:51:25;;;;;;;4.95;1.42;;;5.50;99.90;;;;;;5037698;28;20087;-77
2023/03/05 08:53:52;;;;;;;5.40;1.35;;;5.50;99.90;;;;;;5018176;28;20036;-78
2023/03/05 08:56:18;;;;;;;3.58;1.17;;;5.50;99.90;;;;;;5037239;28;20037;-78
2023/03/05 08:58:45;;;;;;;2.15;1.00;;;5.50;99.90;;;;;;5011125;28;20089;-78
2023/03/05 09:01:11;;;;;;;4.18;1.08;;;5.60;99.90;;;;;;5005198;28;20117;-78
2023/03/05 09:03:37;;;;;;;3.22;1.02;;;5.80;99.90;;;;;;5016580;28;20037;-79
2023/03/05 09:06:06;;;;;;;3.17;1.35;;;5.90;99.90;;;;;;4999046;28;20388;-78
2023/03/05 09:08:32;;;;;;;3.45;1.05;;;6.10;99.90;;;;;;5017242;28;20053;-77
2023/03/05 09:11:01;;;;;;;3.75;1.00;;;6.20;99.90;;;;;;5017673;28;20052;-78
2023/03/05 09:13:27;;;;;;;2.92;1.00;;;6.20;99.90;;;;;;5005500;28;20040;-79
2023/03/05 09:16:01;;;;;;;2.67;1.00;;;6.30;99.90;;;;;;5005586;28;20502;-78
2023/03/05 09:18:27;;;;;;;3.20;1.02;;;6.30;99.90;;;;;;5017340;28;20037;-79
2023/03/05 09:20:53;;;;;;;3.00;1.10;;;6.20;99.90;;;;;;5018280;28;20040;-78
2023/03/05 09:23:18;;;;;;;4.57;1.60;;;6.20;99.90;;;;;;5005567;28;20110;-78
2023/03/05 09:25:44;;;;;;;2.28;1.10;;;6.20;99.90;;;;;;5000090;28;20107;-78
2023/03/05 09:28:10;;;;;;;3.65;1.38;;;6.20;99.90;;;;;;4999244;28;20037;-80
2023/03/05 09:30:35;;;;;;;4.13;1.23;;;6.30;99.90;;;;;;4998595;28;20045;-79
2023/03/05 09:33:01;;;;;;;5.00;1.20;;;6.30;99.90;;;;;;5016698;28;20075;-78
2023/03/05 09:35:28;;;;;;;2.95;1.30;;;6.40;99.90;;;;;;4998038;28;20482;-78
2023/03/05 09:37:54;;;;;;;2.60;1.30;;;6.40;99.90;;;;;;5017155;28;20067;-79
2023/03/05 09:40:20;;;;;;;4.13;1.30;;;6.50;99.90;;;;;;4998172;28;20042;-79
2023/03/05 09:43:12;;;;;;;5.45;1.55;;;6.50;99.90;;;;;;5004466;28;20033;-79
2023/03/05 09:45:45;;;;;;;3.83;1.40;;;6.50;99.90;;;;;;4999293;28;20052;-78
2023/03/05 09:48:20;;;;;;;3.22;2.13;;;6.60;99.90;;;;;;4998511;28;20038;-77
2023/03/05 09:51:00;;;;;;;3.22;1.40;;;6.60;99.90;;;;;;5001508;28;20033;-79
2023/03/05 09:53:39;;;;;;;3.20;1.30;;;6.70;99.90;;;;;;4999572;28;20116;-79
2023/03/05 09:56:15;;;;;;;5.03;1.80;;;6.80;99.90;;;;;;4997857;28;20394;-77
2023/03/05 09:59:22;;;;;;;4.25;1.52;;;7.00;99.90;;;;;;4990466;28;20052;-77
2023/03/05 10:01:51;;;;;;;3.40;1.65;;;7.10;99.90;;;;;;5003299;28;20057;-76
2023/03/05 10:04:25;;;;;;;3.40;1.60;;;7.20;99.90;;;;;;5001773;28;20511;-78
2023/03/05 10:07:18;;;;;;;5.18;1.65;;;7.50;99.90;;;;;;5018602;28;20033;-78
2023/03/05 10:10:02;;;;;;;5.88;1.50;;;7.50;99.90;;;;;;5002723;28;20049;-78
2023/03/05 10:12:41;;;;;;;4.22;1.20;;;7.40;99.90;;;;;;5020513;28;20518;-78
2023/03/05 10:15:14;;;;;;;3.92;1.80;;;7.20;99.90;;;;;;5001791;28;20498;-78
2023/03/05 10:17:46;;;;;;;4.38;1.45;;;7.10;99.90;;;;;;5001741;28;20029;-79
2023/03/05 10:20:42;;;;;;;2.67;1.30;;;6.90;99.90;;;;;;5020280;28;20033;-78
2023/03/05 10:23:10;;;;;;;4.72;1.50;;;6.80;99.90;;;;;;5006954;28;20048;-77
2023/03/05 10:26:00;;;;;;;3.38;1.10;;;6.60;99.90;;;;;;5018958;28;20177;-77
2023/03/05 10:28:45;;;;;;;2.70;1.10;;;6.60;99.90;;;;;;5001049;28;20042;-78
2023/03/05 10:31:20;;;;;;;2.80;1.08;;;6.60;99.90;;;;;;5001179;28;20081;-79
2023/03/05 10:33:58;;;;;;;1.48;0.90;;;6.60;99.90;;;;;;5002617;28;20033;-79
2023/03/05 10:36:32;;;;;;;2.85;1.00;;;6.70;99.90;;;;;;5000590;28;20053;-78
2023/03/05 10:39:07;;;;;;;2.38;1.10;;;6.70;99.90;;;;;;5002676;28;20045;-77
2023/03/05 10:41:54;;;;;;;3.63;1.45;;;6.70;99.90;;;;;;5019254;28;20038;-78
2023/03/05 10:44:38;;;;;;;3.08;0.90;;;6.70;99.90;;;;;;5001162;28;20049;-78
2023/03/05 10:47:21;;;;;;;2.90;1.10;;;6.70;99.90;;;;;;5018427;28;20045;-79
2023/03/05 10:49:52;;;;;;;2.40;0.73;;;6.80;99.90;;;;;;5019372;28;20518;-79
2023/03/05 10:52:33;;;;;;;3.85;1.17;;;6.90;99.90;;;;;;5007796;28;20433;-77
2023/03/05 10:54:59;;;;;;;3.33;0.80;;;6.90;99.90;;;;;;5000913;28;20205;-78
2023/03/05 10:57:30;;;;;;;3.38;1.00;;;7.00;99.90;;;;;;5022991;28;20057;-79
2023/03/05 11:00:05;;;;;;;2.85;0.70;;;7.10;99.90;;;;;;5036490;28;20041;-77
2023/03/05 11:02:32;;;;;;;5.85;0.98;;;7.10;99.90;;;;;;5022694;28;20085;-77
2023/03/05 11:04:58;;;;;;;3.33;0.98;;;7.10;99.90;;;;;;5034346;28;20169;-77
2023/03/05 11:07:23;;;;;;;1.58;0.88;;;7.20;99.90;;;;;;5021607;28;20662;-79
2023/03/05 11:10:15;;;;;;;2.45;0.90;;;7.20;99.90;;;;;;5017550;28;20067;-79
2023/03/05 11:12:41;;;;;;;3.15;0.90;;;7.30;99.90;;;;;;5033990;28;20522;-78
2023/03/05 11:15:13;;;;;;;4.05;0.70;;;7.40;99.90;;;;;;5018208;28;20040;-79
2023/03/05 11:17:41;;;;;;;3.13;0.90;;;7.50;99.90;;;;;;5018255;28;20041;-79
2023/03/05 11:20:43;;;;;;;3.58;1.17;;;7.50;99.90;;;;;;5034597;28;20480;-77
2023/03/05 11:23:22;;;;;;;4.22;0.75;;;7.80;99.90;;;;;;4964027;28;20045;-77
2023/03/05 11:26:00;;;;;;;3.70;0.90;;;8.40;99.90;;;;;;5020554;28;20537;-77
2023/03/05 11:28:30;;;;;;;2.42;0.82;;;8.80;99.90;;;;;;5035594;28;20048;-79
2023/03/05 11:30:58;;;;;;;1.70;0.88;;;9.10;99.90;;;;;;5016387;28;20605;-78
2023/03/05 11:33:27;;;;;;;2.25;0.90;;;9.60;99.90;;;;;;5016301;28;20115;-78
2023/03/05 11:36:12;;;;;;;4.15;1.35;;;10.00;99.90;;;;;;5028530;28;20129;-79
2023/03/05 11:38:57;;;;;;;3.17;0.80;;;10.40;99.90;;;;;;5021845;28;20029;-80
2023/03/05 11:41:31;;;;;;;3.88;1.05;;;10.90;99.90;;;;;;5015065;28;20072;-78
2023/03/05 11:43:59;;;;;;;4.72;0.88;;;11.40;99.90;;;;;;5033430;28;20582;-78
2023/03/05 11:46:26;;;;;;;1.48;0.73;;;11.70;99.90;;;;;;5016966;28;20040;-77
2023/03/05 11:48:53;;;;;;;2.25;1.25;;;11.60;99.90;;;;;;5017008;28;20041;-79
2023/03/05 11:51:24;;;;;;;3.28;0.80;;;11.50;99.90;;;;;;5021062;28;20038;-78
2023/03/05 11:53:57;;;;;;;3.25;0.75;;;11.80;99.90;;;;;;5017117;28;20133;-79
2023/03/05 11:56:30;;;;;;;3.10;0.90;;;12.10;99.90;;;;;;5035257;28;20040;-78
2023/03/05 11:59:16;;;;;;;3.33;0.80;;;12.30;99.90;;;;;;5034074;28;20249;-77
2023/03/05 12:01:52;;;;;;;1.88;0.82;;;12.40;99.90;;;;;;5016584;28;20025;-77
2023/03/05 12:04:19;;;;;;;3.00;0.80;;;12.10;99.90;;;;;;5033952;28;20048;-77
2023/03/05 12:06:56;;;;;;;2.45;0.60;;;11.80;99.90;;;;;;5034691;28;20030;-79
2023/03/05 12:09:27;;;;;;;2.28;0.70;;;11.50;99.90;;;;;;5033706;28;20045;-77
2023/03/05 12:12:01;;;;;;;1.80;0.70;;;11.20;99.90;;;;;;5034874;28;20049;-78
2023/03/05 12:14:46;;;;;;;1.83;0.63;;;10.90;99.90;;;;;;5017141;28;20037;-79
2023/03/05 12:17:23;;;;;;;3.25;0.82;;;10.60;99.90;;;;;;5016467;28;20030;-77
2023/03/05 12:20:12;;;;;;;2.45;0.90;;;10.20;99.90;;;;;;5037594;28;20086;-79
2023/03/05 12:22:41;;;;;;;2.45;0.70;;;9.80;99.90;;;;;;5020684;28;20041;-79
2023/03/05 12:25:31;;;;;;;11.13;1.10;;;10.00;99.90;;;;;;5038192;28;20025;-80
2023/03/05 12:28:04;;;;;;;3.72;0.90;;;10.70;99.90;;;;;;5044672;28;20120;-91
2023/03/05 12:30:32;;;;;;;1.23;0.50;;;11.40;99.90;;;;;;5040380;28;20056;-90
2023/03/05 12:33:02;;;;;;;1.60;0.63;;;12.10;99.90;;;;;;5041393;28;20029;-91
2023/03/05 12:35:36;;;;;;;2.83;0.90;;;12.60;99.90;;;;;;5037176;28;20083;-88
2023/03/05 12:38:21;;;;;;;3.35;0.80;;;12.60;99.90;;;;;;5032728;28;20053;-89
2023/03/05 12:41:41;;;;;;;3.65;0.80;;;12.80;99.90;;;;;;5036254;28;20032;-91
2023/03/05 12:44:06;;;;;;;1.92;0.55;;;12.90;99.90;;;;;;5037059;28;20037;-88
2023/03/05 12:46:41;;;;;;;2.05;0.70;;;12.70;99.90;;;;;;5035262;28;20048;-93
2023/03/05 12:49:38;;;;;;;2.22;0.70;;;12.20;99.90;;;;;;5034748;28;20045;-90
2023/03/05 12:52:11;;;;;;;1.65;0.57;;;12.10;99.90;;;;;;5043302;28;20735;-85
2023/03/05 12:54:40;;;;;;;1.10;0.52;;;12.10;99.90;;;;;;5032659;28;20140;-84
2023/03/05 12:57:22;;;;;;;1.20;0.52;;;11.80;99.90;;;;;;5030451;28;20029;-84
2023/03/05 12:59:57;;;;;;;3.45;0.52;;;11.40;99.90;;;;;;5014066;28;20542;-83
2023/03/05 13:02:38;;;;;;;2.20;0.63;;;11.20;99.90;;;;;;5013172;28;20116;-84
2023/03/05 13:05:36;;;;;;;4.30;0.50;;;10.80;99.90;;;;;;5008760;28;20037;-84
2023/03/05 13:08:22;;;;;;;2.13;0.70;;;10.50;99.90;;;;;;5018668;28;20643;-83